Time;durP1;ratioP1;P1;durP2;ratioP2;P2;SDS_P1;SDS_P2;PMS_P1;PMS_P2;Temp;Humidity;BMP_temperature;BMP_pressure;BME280_temperature;BME280_humidity;BME280_pressure;Samples;Min_cycle;Max_cycle;Signal;HPM_P1;HPM_P2
2022/07/31 00:00:24;;;;;;;4.60;3.30;;;;;;;17.70;92.59;101754.78;4909545;29;20031;-77
2022/07/31 00:02:50;;;;;;;3.03;2.72;;;;;;;17.67;92.24;101755.84;4892131;29;20076;-77
2022/07/31 00:05:15;;;;;;;3.67;2.78;;;;;;;17.63;92.33;101754.28;4895291;29;20123;-77
2022/07/31 00:07:41;;;;;;;3.35;3.03;;;;;;;17.61;92.51;101750.84;4894916;29;20504;-77
2022/07/31 00:10:08;;;;;;;4.20;3.08;;;;;;;17.59;92.37;101750.09;4893377;29;20783;-77
2022/07/31 00:12:34;;;;;;;3.15;2.85;;;;;;;17.59;92.54;101755.44;4908029;29;20544;-77
2022/07/31 00:15:04;;;;;;;3.42;3.10;;;;;;;17.58;92.61;101753.69;4909004;29;20044;-78
2022/07/31 00:17:29;;;;;;;3.80;3.35;;;;;;;17.60;92.82;101757.16;4859268;29;20046;-77
2022/07/31 00:19:55;;;;;;;3.63;3.30;;;;;;;17.60;92.86;101749.13;4883443;29;20039;-77
2022/07/31 00:22:20;;;;;;;4.90;3.45;;;;;;;17.60;92.77;101752.66;4895679;29;20174;-77
2022/07/31 00:24:46;;;;;;;5.20;3.03;;;;;;;17.58;92.78;101748.34;4890755;29;20083;-77
2022/07/31 00:27:12;;;;;;;4.35;3.13;;;;;;;17.60;93.07;101749.13;4890600;29;20040;-77
2022/07/31 00:29:38;;;;;;;3.53;3.22;;;;;;;17.61;93.18;101750.84;4907515;29;20509;-77
2022/07/31 00:32:04;;;;;;;3.60;3.25;;;;;;;17.62;92.95;101741.88;4892088;29;20040;-77
2022/07/31 00:34:29;;;;;;;4.97;3.17;;;;;;;17.64;93.17;101750.66;4894742;29;20036;-77
2022/07/31 00:36:55;;;;;;;4.40;3.17;;;;;;;17.64;93.29;101738.13;4909437;29;20043;-78
2022/07/31 00:39:20;;;;;;;3.40;3.10;;;;;;;17.64;93.44;101738.13;4909050;29;20046;-77
2022/07/31 00:41:46;;;;;;;3.38;2.95;;;;;;;17.66;92.98;101738.06;4908913;29;20034;-77
2022/07/31 00:44:12;;;;;;;3.90;3.10;;;;;;;17.67;93.10;101736.22;4891534;29;20043;-77
2022/07/31 00:46:39;;;;;;;3.85;3.20;;;;;;;17.67;93.08;101729.06;4874475;29;20110;-77
2022/07/31 00:49:06;;;;;;;3.55;3.20;;;;;;;17.66;93.24;101722.00;4878231;29;20430;-77
2022/07/31 00:51:32;;;;;;;4.95;3.30;;;;;;;17.66;93.16;101711.28;4897761;29;20031;-77
2022/07/31 00:54:00;;;;;;;6.13;3.15;;;;;;;17.64;93.13;101713.16;4890893;29;20044;-77
2022/07/31 00:56:26;;;;;;;3.78;3.13;;;;;;;17.63;92.85;101711.44;4909754;29;20031;-77
2022/07/31 00:58:51;;;;;;;3.65;3.25;;;;;;;17.61;93.21;101710.69;4891750;29;20044;-78
2022/07/31 01:01:17;;;;;;;3.58;3.15;;;;;;;17.59;92.95;101710.78;4890231;29;20038;-77
2022/07/31 01:03:42;;;;;;;4.63;3.25;;;;;;;17.60;92.98;101706.31;4883228;29;20043;-77
2022/07/31 01:06:08;;;;;;;3.72;3.20;;;;;;;17.59;92.91;101705.44;4909057;29;20586;-77
2022/07/31 01:08:34;;;;;;;3.28;2.92;;;;;;;17.58;93.01;101695.69;4891507;29;20039;-77
2022/07/31 01:11:07;;;;;;;5.75;3.40;;;;;;;17.59;93.46;101704.59;4894472;29;20478;-77
2022/07/31 01:13:44;;;;;;;8.70;3.80;;;;;;;17.57;93.67;101701.13;4894074;29;20134;-78
2022/07/31 01:16:10;;;;;;;4.32;3.63;;;;;;;17.57;93.27;101706.47;4908350;29;20123;-77
2022/07/31 01:18:37;;;;;;;6.47;3.75;;;;;;;17.54;93.17;101698.66;4893000;29;20028;-77
2022/07/31 01:21:06;;;;;;;4.78;3.75;;;;;;;17.51;92.93;101692.53;4891681;29;20154;-77
2022/07/31 01:23:41;;;;;;;4.75;3.40;;;;;;;17.47;92.57;101691.00;4908646;29;20028;-77
2022/07/31 01:26:27;;;;;;;3.92;3.50;;;;;;;17.47;92.63;101690.13;4909292;29;20095;-77
2022/07/31 01:29:08;;;;;;;3.85;3.53;;;;;;;17.46;92.43;101689.28;4906736;29;20083;-77
2022/07/31 01:31:56;;;;;;;3.85;3.25;;;;;;;17.43;92.52;101689.44;4907108;29;20036;-76
2022/07/31 01:34:26;;;;;;;6.75;3.65;;;;;;;17.41;92.06;101683.34;4907784;29;20051;-77
2022/07/31 01:37:19;;;;;;;3.85;3.35;;;;;;;17.38;92.18;101687.06;4882516;29;20055;-77
2022/07/31 01:40:14;;;;;;;3.35;3.05;;;;;;;17.39;92.10;101693.28;4886684;29;20044;-77
2022/07/31 01:42:42;;;;;;;4.15;3.25;;;;;;;17.38;91.66;101684.38;4908927;29;20388;-77
2022/07/31 01:45:13;;;;;;;4.20;3.42;;;;;;;17.38;91.43;101687.06;4892989;29;20071;-77
2022/07/31 01:47:39;;;;;;;3.25;2.95;;;;;;;17.40;91.37;101692.31;4898445;29;20046;-77
2022/07/31 01:50:07;;;;;;;3.88;3.10;;;;;;;17.41;91.02;101688.69;4894727;29;20027;-77
2022/07/31 01:52:33;;;;;;;3.88;3.30;;;;;;;17.41;90.86;101691.38;4894705;29;20533;-76
2022/07/31 01:54:59;;;;;;;5.00;3.55;;;;;;;17.41;90.81;101691.38;4911846;29;20394;-77
2022/07/31 01:57:26;;;;;;;4.15;3.55;;;;;;;17.42;90.67;101693.06;4901636;29;20032;-78
2022/07/31 01:59:57;;;;;;;5.28;3.92;;;;;;;17.43;90.66;101686.78;4910667;29;20039;-78
2022/07/31 02:02:23;;;;;;;4.35;3.80;;;;;;;17.41;90.32;101677.97;4911977;29;20059;-79
2022/07/31 02:04:49;;;;;;;5.10;3.40;;;;;;;17.42;90.09;101687.72;4912463;29;20069;-78
2022/07/31 02:07:28;;;;;;;4.55;3.30;;;;;;;17.44;90.19;101690.31;4894156;29;20513;-78
2022/07/31 02:10:00;;;;;;;3.85;3.45;;;;;;;17.43;89.88;101684.09;4912043;29;20103;-78
2022/07/31 02:12:27;;;;;;;5.05;3.28;;;;;;;17.43;89.80;101683.25;4910865;29;21747;-78
2022/07/31 02:14:55;;;;;;;4.82;3.33;;;;;;;17.44;89.77;101663.56;4893999;29;20058;-77
2022/07/31 02:17:21;;;;;;;4.28;3.35;;;;;;;17.42;90.05;101660.97;4910396;29;20035;-77
2022/07/31 02:19:48;;;;;;;4.22;3.70;;;;;;;17.40;90.28;101668.25;4911188;29;20479;-77
2022/07/31 02:22:14;;;;;;;4.18;3.78;;;;;;;17.38;90.44;101659.44;4910092;29;20046;-77
2022/07/31 02:24:39;;;;;;;4.05;3.65;;;;;;;17.36;90.89;101646.16;4911996;29;20051;-77
2022/07/31 02:27:06;;;;;;;5.93;3.35;;;;;;;17.34;91.06;101652.56;4892704;29;20043;-78
2022/07/31 02:29:32;;;;;;;5.90;3.60;;;;;;;17.32;91.23;101643.78;4911369;29;20040;-78
2022/07/31 02:31:58;;;;;;;4.85;3.60;;;;;;;17.29;91.29;101643.94;4911177;29;20040;-77
2022/07/31 02:34:24;;;;;;;4.45;3.20;;;;;;;17.29;91.27;101643.94;4878064;29;20028;-77
2022/07/31 02:36:51;;;;;;;4.75;3.70;;;;;;;17.27;91.52;101653.88;4910674;29;20035;-77
2022/07/31 02:39:17;;;;;;;4.43;3.85;;;;;;;17.26;91.78;101644.13;4892008;29;20028;-77
2022/07/31 02:41:43;;;;;;;4.60;4.20;;;;;;;17.22;91.92;101646.16;4894315;29;20554;-77
2022/07/31 02:44:13;;;;;;;4.13;3.70;;;;;;;17.21;92.14;101657.81;4894392;29;20755;-78
2022/07/31 02:46:41;;;;;;;5.03;4.18;;;;;;;17.18;91.99;101650.81;4910140;29;20119;-76
2022/07/31 02:49:06;;;;;;;5.75;4.65;;;;;;;17.16;92.09;101654.53;4891683;29;20735;-78
2022/07/31 02:51:32;;;;;;;4.90;4.22;;;;;;;17.13;92.26;101650.25;4863316;29;20094;-77
2022/07/31 02:53:58;;;;;;;5.57;4.18;;;;;;;17.10;92.29;101653.06;4866603;29;20044;-77
2022/07/31 02:56:23;;;;;;;4.32;3.92;;;;;;;17.07;92.44;101651.47;4900078;29;20035;-77
2022/07/31 02:58:49;;;;;;;4.63;4.00;;;;;;;17.06;92.76;101643.53;4910219;29;20083;-77
2022/07/31 03:01:15;;;;;;;4.90;4.40;;;;;;;17.04;92.94;101638.28;4884796;29;20047;-77
2022/07/31 03:03:41;;;;;;;4.47;4.00;;;;;;;17.02;92.88;101633.97;4909753;29;20036;-77
2022/07/31 03:06:07;;;;;;;5.38;3.97;;;;;;;17.02;93.13;101628.63;4893439;29;20395;-78
2022/07/31 03:08:33;;;;;;;5.60;3.95;;;;;;;17.01;92.99;101619.72;4894119;29;20074;-77
2022/07/31 03:11:01;;;;;;;5.13;3.88;;;;;;;16.99;93.02;101610.06;4893686;29;20123;-77
2022/07/31 03:13:29;;;;;;;6.07;4.40;;;;;;;16.96;93.29;101611.94;4911403;29;20554;-77
2022/07/31 03:15:56;;;;;;;5.18;4.25;;;;;;;16.94;93.67;101608.50;4893814;29;21568;-78
2022/07/31 03:18:22;;;;;;;4.70;3.75;;;;;;;16.92;94.03;101609.56;4883617;29;20119;-77
2022/07/31 03:20:51;;;;;;;5.03;4.05;;;;;;;16.91;94.33;101602.50;4893873;29;20451;-77
2022/07/31 03:23:20;;;;;;;5.18;4.07;;;;;;;16.91;94.28;101599.81;4893722;29;20023;-78
2022/07/31 03:25:49;;;;;;;4.85;4.03;;;;;;;16.91;94.15;101595.34;4893989;29;20138;-78
2022/07/31 03:28:16;;;;;;;6.32;4.43;;;;;;;16.90;94.58;101590.06;4893815;29;20384;-78
2022/07/31 03:30:41;;;;;;;5.22;4.57;;;;;;;16.91;94.67;101592.66;4900448;29;20052;-78
2022/07/31 03:33:07;;;;;;;6.13;4.15;;;;;;;16.90;95.28;101580.25;4908924;29;20115;-78
2022/07/31 03:35:32;;;;;;;4.50;4.10;;;;;;;16.90;94.97;101580.25;4910310;29;20032;-78
2022/07/31 03:37:59;;;;;;;6.07;4.47;;;;;;;16.91;94.96;101579.28;4901088;29;20063;-78
2022/07/31 03:40:24;;;;;;;7.07;4.63;;;;;;;16.91;95.17;101576.63;4910578;29;21221;-78
2022/07/31 03:42:51;;;;;;;5.63;3.83;;;;;;;16.91;95.22;101575.75;4911378;29;20036;-78
2022/07/31 03:45:18;;;;;;;4.85;3.90;;;;;;;16.93;95.04;101590.75;4892621;29;20031;-78
2022/07/31 03:47:43;;;;;;;5.03;3.90;;;;;;;16.93;95.14;101582.72;4910332;29;20031;-78
2022/07/31 03:50:10;;;;;;;5.25;4.00;;;;;;;16.96;95.06;101590.56;4909204;29;20454;-78
2022/07/31 03:52:35;;;;;;;5.07;3.58;;;;;;;16.99;95.13;101586.00;4910653;29;20044;-78
2022/07/31 03:55:01;;;;;;;4.82;4.00;;;;;;;17.02;95.00;101581.34;4892719;29;20407;-78
2022/07/31 03:57:27;;;;;;;4.95;4.10;;;;;;;17.05;95.13;101591.84;4880597;29;20075;-78
2022/07/31 03:59:56;;;;;;;8.02;4.45;;;;;;;17.08;94.82;101585.44;4880147;29;20386;-78
2022/07/31 04:02:24;;;;;;;6.03;4.35;;;;;;;17.12;95.01;101588.78;4908851;29;20174;-78
2022/07/31 04:04:50;;;;;;;4.47;4.07;;;;;;;17.12;95.00;101578.09;4908066;29;20059;-77
2022/07/31 04:07:15;;;;;;;4.63;3.70;;;;;;;17.16;95.07;101585.81;4910261;29;20126;-78
2022/07/31 04:09:41;;;;;;;4.30;3.90;;;;;;;17.17;95.13;101582.19;4895313;29;20032;-78
2022/07/31 04:12:07;;;;;;;7.03;4.47;;;;;;;17.17;95.36;101576.84;4908064;29;20032;-78
2022/07/31 04:14:32;;;;;;;5.05;3.95;;;;;;;17.20;95.36;101578.47;4893018;29;20674;-78
2022/07/31 04:16:58;;;;;;;6.43;4.20;;;;;;;17.21;95.45;101574.88;4909095;29;20075;-78
2022/07/31 04:19:23;;;;;;;5.53;3.65;;;;;;;17.20;95.64;101568.66;4890628;29;20043;-78
2022/07/31 04:21:49;;;;;;;5.28;4.05;;;;;;;17.21;95.61;101565.00;4892290;29;20642;-78
2022/07/31 04:24:17;;;;;;;5.70;4.55;;;;;;;17.21;95.55;101567.69;4909838;29;20038;-78
2022/07/31 04:26:43;;;;;;;5.85;4.07;;;;;;;17.22;95.83;101561.38;4891764;29;20289;-78
2022/07/31 04:29:10;;;;;;;4.47;3.97;;;;;;;17.23;95.90;101556.88;4889920;29;20230;-77
2022/07/31 04:31:35;;;;;;;5.07;4.03;;;;;;;17.22;95.97;101553.34;4892659;29;20039;-78
2022/07/31 04:34:01;;;;;;;5.20;4.15;;;;;;;17.23;95.77;101562.25;4909457;29;20087;-77
2022/07/31 04:36:30;;;;;;;5.10;4.10;;;;;;;17.24;95.86;101555.94;4891194;29;20032;-78
2022/07/31 04:38:57;;;;;;;4.93;4.10;;;;;;;17.23;95.96;101560.41;4908589;29;20070;-78
2022/07/31 04:41:25;;;;;;;6.68;4.18;;;;;;;17.24;96.37;101556.81;4892288;29;20139;-78
2022/07/31 04:43:51;;;;;;;4.45;3.85;;;;;;;17.24;96.37;101562.16;4894397;29;20032;-77
2022/07/31 04:46:17;;;;;;;4.57;4.05;;;;;;;17.28;96.34;101553.91;4874106;29;20042;-78
2022/07/31 04:48:42;;;;;;;5.97;4.28;;;;;;;17.29;96.25;101552.97;4893879;29;20031;-77
2022/07/31 04:51:08;;;;;;;4.93;4.20;;;;;;;17.30;96.48;101543.97;4908367;29;20028;-77
2022/07/31 04:53:33;;;;;;;6.18;4.10;;;;;;;17.31;96.49;101549.25;4895868;29;20031;-77
2022/07/31 04:58:43;;;;;;;7.07;3.83;;;;;;;17.34;96.86;101545.50;4909121;29;20624;-77
2022/07/31 05:01:08;;;;;;;5.20;4.38;;;;;;;17.36;96.67;101554.28;4908796;29;20055;-77
2022/07/31 05:03:37;;;;;;;5.15;4.28;;;;;;;17.38;96.78;101552.41;4907486;29;20031;-77
2022/07/31 05:06:10;;;;;;;4.15;3.75;;;;;;;17.41;96.68;101541.50;4905877;29;20040;-78
2022/07/31 05:08:36;;;;;;;6.85;4.80;;;;;;;17.45;96.54;101553.72;4907871;29;20031;-77
2022/07/31 05:13:45;;;;;;;6.28;4.70;;;;;;;17.55;96.67;101553.13;4893279;29;20056;-78
2022/07/31 05:16:11;;;;;;;6.13;4.65;;;;;;;17.57;96.54;101537.81;4890715;29;20098;-78
2022/07/31 05:18:40;;;;;;;6.53;4.40;;;;;;;17.60;96.46;101543.00;4877928;29;20559;-77
2022/07/31 05:21:05;;;;;;;5.40;4.50;;;;;;;17.62;96.39;101544.63;4912351;29;20575;-76
2022/07/31 05:23:31;;;;;;;5.57;4.70;;;;;;;17.65;96.41;101549.75;4911027;29;20032;-77
2022/07/31 05:25:56;;;;;;;5.47;4.55;;;;;;;17.68;96.41;101548.72;4911700;29;20035;-77
2022/07/31 05:28:22;;;;;;;5.22;4.72;;;;;;;17.70;96.56;101541.44;4878773;29;20509;-77
2022/07/31 05:30:47;;;;;;;6.97;4.80;;;;;;;17.73;96.38;101541.25;4893854;29;20028;-77
2022/07/31 05:33:13;;;;;;;5.35;4.47;;;;;;;17.77;96.29;101542.75;4910041;29;20040;-76
2022/07/31 05:35:38;;;;;;;5.28;4.50;;;;;;;17.80;96.36;101543.53;4879682;29;20411;-76
2022/07/31 05:38:04;;;;;;;7.03;4.75;;;;;;;17.82;96.38;101544.28;4897657;29;20046;-76
2022/07/31 05:40:29;;;;;;;6.13;4.57;;;;;;;17.84;96.07;101545.91;4911602;29;20043;-76
2022/07/31 05:42:57;;;;;;;6.53;4.55;;;;;;;17.89;96.47;101545.59;4913008;29;20047;-76
2022/07/31 05:45:25;;;;;;;5.47;4.55;;;;;;;17.90;96.30;101540.16;4896119;29;20047;-76
2022/07/31 05:47:51;;;;;;;4.82;4.32;;;;;;;17.93;96.28;101552.47;4913137;29;20027;-76
2022/07/31 05:50:17;;;;;;;6.05;4.85;;;;;;;17.95;96.21;101539.84;4913318;29;20096;-76
2022/07/31 05:52:43;;;;;;;5.45;4.53;;;;;;;17.98;95.96;101536.09;4912260;29;20043;-76
2022/07/31 05:55:08;;;;;;;5.85;4.22;;;;;;;18.00;96.01;101539.53;4911802;29;20039;-77
2022/07/31 05:57:34;;;;;;;4.75;4.25;;;;;;;18.01;95.89;101536.75;4913321;29;20183;-76
2022/07/31 05:59:59;;;;;;;7.40;4.22;;;;;;;18.04;96.10;101523.13;4900272;29;20097;-76
2022/07/31 06:02:25;;;;;;;5.50;4.90;;;;;;;18.09;95.97;101530.91;4911673;29;20063;-76
2022/07/31 06:04:51;;;;;;;5.60;4.85;;;;;;;18.13;95.85;101531.56;4912745;29;20047;-76
2022/07/31 06:07:16;;;;;;;5.22;4.50;;;;;;;18.15;95.70;101519.78;4894384;29;20043;-77
2022/07/31 06:09:42;;;;;;;5.15;4.57;;;;;;;18.18;95.65;101516.03;4910537;29;20043;-77
2022/07/31 06:12:11;;;;;;;6.35;4.55;;;;;;;18.23;95.90;101515.72;4912789;29;20091;-76
2022/07/31 06:14:36;;;;;;;6.18;4.90;;;;;;;18.27;95.85;101514.56;4893931;29;20052;-76
2022/07/31 06:17:06;;;;;;;5.18;4.68;;;;;;;18.32;96.25;101517.78;4892594;29;20043;-76
2022/07/31 06:19:32;;;;;;;7.60;4.82;;;;;;;18.37;96.17;101514.78;4898644;29;20082;-78
2022/07/31 06:21:57;;;;;;;7.43;4.60;;;;;;;18.43;96.19;101517.91;4909588;29;20204;-76
2022/07/31 06:24:24;;;;;;;6.05;4.93;;;;;;;18.48;95.96;101522.97;4895077;29;20536;-77
2022/07/31 06:26:50;;;;;;;5.78;4.55;;;;;;;18.53;96.10;101507.41;4910400;29;20028;-77
2022/07/31 06:29:16;;;;;;;8.02;5.28;;;;;;;18.58;96.18;101507.94;4907872;29;21274;-76
2022/07/31 06:31:42;;;;;;;8.45;4.82;;;;;;;18.66;96.20;101519.97;4893189;29;20080;-77
2022/07/31 06:34:07;;;;;;;8.90;5.43;;;;;;;18.70;96.29;101508.06;4876943;29;20483;-76
2022/07/31 06:36:33;;;;;;;7.00;5.10;;;;;;;18.75;96.62;101511.31;4910119;29;20052;-79
2022/07/31 06:38:58;;;;;;;5.25;4.75;;;;;;;18.81;96.75;101504.63;4893386;29;20779;-78
2022/07/31 06:44:08;;;;;;;6.18;5.55;;;;;;;18.91;96.55;101504.84;4894680;29;20570;-78
2022/07/31 06:46:33;;;;;;;6.32;5.53;;;;;;;18.96;96.42;101508.06;4911871;29;20036;-79
2022/07/31 06:48:59;;;;;;;6.25;5.43;;;;;;;19.00;96.67;101504.19;4910017;29;20082;-79
2022/07/31 06:51:24;;;;;;;10.10;6.93;;;;;;;19.06;96.71;101497.59;4911927;29;20035;-79
2022/07/31 06:53:50;;;;;;;8.23;6.30;;;;;;;19.12;97.57;101498.00;4879322;29;20674;-79
2022/07/31 06:56:16;;;;;;;7.70;6.32;;;;;;;19.18;98.00;101495.84;4878570;29;20050;-79
2022/07/31 06:58:41;;;;;;;8.52;7.10;;;;;;;19.21;98.35;101493.78;4878734;29;20036;-79
2022/07/31 07:01:07;;;;;;;8.23;6.57;;;;;;;19.25;98.83;101497.09;4894439;29;20142;-79
2022/07/31 07:03:33;;;;;;;9.10;6.47;;;;;;;19.30;98.34;101496.78;4901341;29;20044;-79
2022/07/31 07:05:58;;;;;;;11.75;6.78;;;;;;;19.34;98.37;101492.91;4893788;29;20036;-79
2022/07/31 07:08:24;;;;;;;9.48;6.93;;;;;;;19.35;98.79;101498.13;4892085;29;20046;-80
2022/07/31 07:10:49;;;;;;;8.43;6.32;;;;;;;19.38;98.92;101497.94;4891232;29;20038;-80
2022/07/31 07:13:15;;;;;;;8.73;6.38;;;;;;;19.41;98.96;101497.69;4910831;29;20036;-81
2022/07/31 07:15:40;;;;;;;7.93;6.13;;;;;;;19.46;98.93;101499.19;4892824;29;20044;-81
2022/07/31 07:18:06;;;;;;;7.90;6.40;;;;;;;19.50;99.00;101498.84;4910751;29;20127;-80
2022/07/31 07:20:32;;;;;;;10.68;6.00;;;;;;;19.54;99.29;101503.03;4911739;29;20315;-80
2022/07/31 07:22:57;;;;;;;9.23;5.93;;;;;;;19.58;99.06;101492.94;4900896;29;20040;-80
2022/07/31 07:25:23;;;;;;;8.88;6.18;;;;;;;19.64;99.53;101491.63;4893096;29;20039;-81
2022/07/31 07:27:48;;;;;;;8.77;6.07;;;;;;;19.71;99.76;101494.72;4876656;29;20451;-81
2022/07/31 07:30:14;;;;;;;6.95;5.80;;;;;;;19.77;99.82;101499.63;4891787;29;20039;-81
2022/07/31 07:32:40;;;;;;;8.10;5.50;;;;;;;19.80;100.00;101486.84;4909475;29;20028;-81
2022/07/31 07:35:08;;;;;;;8.52;5.80;;;;;;;19.86;100.00;101481.94;4892620;29;20667;-80
2022/07/31 07:37:33;;;;;;;6.40;4.65;;;;;;;19.90;100.00;101478.06;4909609;28;20055;-80
2022/07/31 07:40:08;;;;;;;9.18;5.72;;;;;;;19.92;100.00;101479.69;4877964;29;20043;-82
2022/07/31 07:42:34;;;;;;;11.20;5.80;;;;;;;19.93;100.00;101484.06;4892687;29;20032;-80
2022/07/31 07:44:59;;;;;;;10.73;5.18;;;;;;;19.92;100.00;101474.31;4893711;29;20036;-80
2022/07/31 07:47:25;;;;;;;6.00;4.80;;;;;;;19.87;100.00;101481.00;4910322;29;20597;-80
2022/07/31 07:49:50;;;;;;;9.85;5.55;;;;;;;19.85;100.00;101481.09;4878134;29;20561;-79
2022/07/31 07:52:16;;;;;;;9.32;5.03;;;;;;;19.85;100.00;101489.16;4876952;29;20035;-78
2022/07/31 07:54:42;;;;;;;10.15;5.55;;;;;;;19.82;100.00;101492.06;4891197;29;20036;-78
2022/07/31 07:57:08;;;;;;;8.68;5.40;;;;;;;19.76;100.00;101489.84;4891095;29;20096;-79
2022/07/31 07:59:34;;;;;;;10.90;5.55;;;;;;;19.70;100.00;101488.47;4890893;29;20028;-79
2022/07/31 08:01:59;;;;;;;11.45;6.22;;;;;;;19.64;100.00;101486.25;4890674;29;20034;-78
2022/07/31 08:04:25;;;;;;;8.05;5.68;;;;;;;19.60;100.00;101485.63;4892249;29;20044;-78
2022/07/31 08:06:51;;;;;;;8.65;6.03;;;;;;;19.54;100.00;101484.25;4910220;29;20560;-78
2022/07/31 08:09:16;;;;;;;10.20;6.10;;;;;;;19.51;100.00;101480.94;4891283;29;20858;-79
2022/07/31 08:11:42;;;;;;;9.30;6.25;;;;;;;19.46;100.00;101477.72;4892680;29;20581;-79
2022/07/31 08:14:09;;;;;;;10.48;6.45;;;;;;;19.38;100.00;101484.50;4908774;29;20590;-77
2022/07/31 08:16:34;;;;;;;10.05;6.60;;;;;;;19.31;100.00;101485.94;4891584;29;20047;-79
2022/07/31 08:19:00;;;;;;;10.65;6.35;;;;;;;19.22;100.00;101483.88;4875557;29;20029;-79
2022/07/31 08:21:25;;;;;;;13.52;7.55;;;;;;;19.15;100.00;101475.44;4908728;29;20487;-79
2022/07/31 08:23:51;;;;;;;11.85;7.82;;;;;;;19.11;100.00;101477.50;4899951;29;20035;-79
2022/07/31 08:26:17;;;;;;;10.90;7.93;;;;;;;19.11;100.00;101474.81;4882180;29;20032;-79
2022/07/31 08:28:42;;;;;;;14.00;8.82;;;;;;;19.07;100.00;101472.47;4899262;29;20789;-79
2022/07/31 08:31:08;;;;;;;16.60;10.05;;;;;;;19.05;100.00;101477.06;4875821;29;20407;-79
2022/07/31 08:33:34;;;;;;;16.42;9.63;;;;;;;19.02;100.00;101479.94;4893027;29;20044;-79
2022/07/31 08:36:00;;;;;;;15.68;9.75;;;;;;;19.02;100.00;101480.84;4889583;29;20095;-78
2022/07/31 08:38:25;;;;;;;15.65;9.18;;;;;;;19.02;100.00;101486.22;4894568;29;20039;-80
2022/07/31 08:40:51;;;;;;;16.73;9.45;;;;;;;19.02;100.00;101490.66;4892076;29;20506;-78
2022/07/31 08:43:16;;;;;;;14.68;9.35;;;;;;;19.00;100.00;101483.59;4908776;29;20079;-80
2022/07/31 08:45:42;;;;;;;15.75;9.65;;;;;;;18.98;100.00;101485.53;4905995;29;20119;-79
2022/07/31 08:48:08;;;;;;;17.75;10.30;;;;;;;18.99;100.00;101481.00;4882546;29;20502;-78
2022/07/31 08:50:38;;;;;;;17.10;9.63;;;;;;;19.01;100.00;101484.44;4878852;29;20028;-78
2022/07/31 08:53:04;;;;;;;16.42;9.77;;;;;;;18.98;100.00;101485.53;4907850;29;20039;-78
2022/07/31 08:55:30;;;;;;;16.33;9.70;;;;;;;18.96;100.00;101481.25;4909847;29;20040;-78
2022/07/31 08:57:56;;;;;;;16.70;10.27;;;;;;;18.97;100.00;101478.44;4908652;29;20047;-78
2022/07/31 09:00:21;;;;;;;17.33;10.30;;;;;;;18.98;100.00;101473.94;4908193;29;20031;-79
2022/07/31 09:02:48;;;;;;;16.55;10.35;;;;;;;18.96;100.00;101476.72;4908597;29;20114;-79
2022/07/31 09:05:15;;;;;;;17.48;10.25;;;;;;;18.95;100.00;101476.84;4908455;29;20043;-76
2022/07/31 09:07:42;;;;;;;18.77;9.82;;;;;;;18.88;100.00;101473.72;4909954;29;20156;-85
2022/07/31 09:10:25;;;;;;;15.10;9.40;;;;;;;18.86;100.00;101471.16;4891575;29;20032;-87
2022/07/31 09:12:54;;;;;;;14.18;9.85;;;;;;;18.84;100.00;101472.22;4892854;29;20059;-79
2022/07/31 09:15:25;;;;;;;15.43;9.73;;;;;;;18.78;100.00;101468.16;4891332;29;20514;-81
2022/07/31 09:17:51;;;;;;;16.30;9.90;;;;;;;18.75;100.00;101479.13;4907700;29;20064;-84
2022/07/31 09:20:28;;;;;;;14.40;9.88;;;;;;;18.72;100.00;101473.94;4892495;29;20138;-87
2022/07/31 09:23:07;;;;;;;15.70;9.57;;;;;;;18.73;100.00;101464.94;4878823;29;20036;-88
2022/07/31 09:25:33;;;;;;;18.33;10.02;;;;;;;18.72;100.00;101468.59;4877597;29;20562;-84
2022/07/31 09:28:04;;;;;;;17.65;10.18;;;;;;;18.71;100.00;101459.72;4892636;29;20111;-85
2022/07/31 09:30:30;;;;;;;15.93;9.77;;;;;;;18.73;100.00;101454.22;4909068;29;20060;-85
2022/07/31 09:33:13;;;;;;;15.43;10.25;;;;;;;18.73;100.00;101448.84;4895706;29;20060;-86
2022/07/31 09:35:47;;;;;;;15.40;9.45;;;;;;;18.75;100.00;101446.94;4920416;29;20036;-82
2022/07/31 09:38:14;;;;;;;15.82;10.00;;;;;;;18.77;100.00;101450.34;4901747;29;20077;-79
2022/07/31 09:40:42;;;;;;;18.20;10.70;;;;;;;18.79;100.00;101448.41;4907875;29;20126;-79
2022/07/31 09:43:21;;;;;;;20.73;10.75;;;;;;;18.83;100.00;101449.94;4892449;29;20570;-78
2022/07/31 09:45:56;;;;;;;17.08;10.38;;;;;;;18.85;100.00;101441.78;4908124;29;20553;-78
2022/07/31 09:48:24;;;;;;;16.77;10.27;;;;;;;18.84;100.00;101443.59;4891826;29;20511;-78
2022/07/31 09:50:54;;;;;;;13.30;8.38;;;;;;;18.81;100.00;101446.50;4909344;29;20517;-78
2022/07/31 09:53:20;;;;;;;14.52;7.90;;;;;;;18.79;100.00;101437.69;4907939;29;20589;-79
2022/07/31 09:55:53;;;;;;;13.70;8.40;;;;;;;18.77;100.00;101436.06;4898763;29;20051;-79
2022/07/31 09:58:20;;;;;;;10.05;7.32;;;;;;;18.75;100.00;101438.03;4894846;29;20039;-79
2022/07/31 10:00:51;;;;;;;13.23;8.32;;;;;;;18.72;100.00;101437.28;4877059;29;20067;-79
2022/07/31 10:03:17;;;;;;;10.55;7.35;;;;;;;18.70;100.00;101435.66;4892055;29;20043;-79
2022/07/31 10:05:44;;;;;;;14.82;8.32;;;;;;;18.70;100.00;101420.41;4885612;29;20776;-79
2022/07/31 10:08:12;;;;;;;12.63;8.20;;;;;;;18.70;100.00;101425.78;4911111;29;21519;-79
2022/07/31 10:10:38;;;;;;;14.35;8.02;;;;;;;18.69;100.00;101440.16;4895318;29;20032;-80
2022/07/31 10:13:07;;;;;;;12.57;8.07;;;;;;;18.70;100.00;101433.00;4913343;29;20054;-81
2022/07/31 10:15:35;;;;;;;15.00;8.80;;;;;;;18.67;100.00;101431.38;4881291;29;20117;-81
2022/07/31 10:18:02;;;;;;;16.27;9.10;;;;;;;18.64;100.00;101423.56;4895098;29;20027;-80
2022/07/31 10:20:28;;;;;;;16.33;9.95;;;;;;;18.64;100.00;101425.38;4912472;29;20451;-82
2022/07/31 10:22:58;;;;;;;18.35;10.90;;;;;;;18.65;100.00;101424.41;4884541;29;20032;-79
2022/07/31 10:25:27;;;;;;;15.43;10.20;;;;;;;18.64;100.00;101423.56;4895823;29;20123;-77
2022/07/31 10:27:55;;;;;;;20.30;11.15;;;;;;;18.63;100.00;101420.97;4909941;29;20046;-78
2022/07/31 10:30:22;;;;;;;22.65;11.23;;;;;;;18.61;100.00;101418.41;4893880;29;20044;-78
2022/07/31 10:32:49;;;;;;;20.55;12.27;;;;;;;18.58;100.00;101415.94;4911160;29;20028;-78
2022/07/31 10:35:16;;;;;;;19.27;12.43;;;;;;;18.57;100.00;101408.84;4912410;29;20047;-78
2022/07/31 10:38:07;;;;;;;20.13;12.43;;;;;;;18.56;100.00;101410.69;4887168;29;20115;-78
2022/07/31 10:40:36;;;;;;;21.95;11.95;;;;;;;18.56;100.00;101408.00;4909396;29;20418;-78
2022/07/31 10:43:29;;;;;;;25.27;13.60;;;;;;;18.55;100.00;101405.44;4909638;29;20050;-78
2022/07/31 10:45:55;;;;;;;23.25;12.95;;;;;;;18.53;100.00;101402.00;4898589;29;20051;-78
2022/07/31 10:48:21;;;;;;;24.27;13.52;;;;;;;18.51;100.00;101396.75;4891776;29;20028;-79
2022/07/31 10:51:10;;;;;;;23.35;13.40;;;;;;;18.50;100.00;101403.06;4891475;29;20850;-80
2022/07/31 10:53:37;;;;;;;26.50;12.35;;;;;;;18.48;100.00;101396.09;4891419;29;20086;-78
2022/07/31 10:56:09;;;;;;;22.70;13.38;;;;;;;18.47;100.00;101395.28;4897561;29;20047;-80
2022/07/31 10:58:47;;;;;;;21.15;12.32;;;;;;;18.45;100.00;101389.13;4904028;29;20039;-79
2022/07/31 11:01:12;;;;;;;25.30;12.38;;;;;;;18.43;100.00;101383.03;4895472;29;20047;-79
2022/07/31 11:03:45;;;;;;;23.90;13.13;;;;;;;18.41;100.00;101384.97;4896069;29;20498;-79
2022/07/31 11:06:15;;;;;;;22.02;12.43;;;;;;;18.37;100.00;101378.97;4894557;29;20046;-79
2022/07/31 11:08:46;;;;;;;22.48;13.13;;;;;;;18.37;100.00;101378.97;4881185;29;20063;-79
2022/07/31 11:11:13;;;;;;;20.98;11.70;;;;;;;18.36;100.00;101374.56;4897589;29;20043;-79
2022/07/31 11:13:48;;;;;;;20.33;12.15;;;;;;;18.38;100.00;101369.09;4914389;29;20050;-79
2022/07/31 11:16:15;;;;;;;23.25;12.80;;;;;;;18.35;100.00;101372.00;4911594;29;20083;-79
2022/07/31 11:18:40;;;;;;;22.75;11.90;;;;;;;18.31;100.00;101369.53;4878748;29;20031;-80
2022/07/31 11:21:08;;;;;;;23.67;12.18;;;;;;;18.31;100.00;101369.53;4894334;29;20043;-80
2022/07/31 11:23:35;;;;;;;22.13;11.57;;;;;;;18.29;100.00;101366.09;4894526;29;20162;-80
2022/07/31 11:26:05;;;;;;;21.95;10.80;;;;;;;18.30;100.00;101366.97;4881549;29;20649;-80
2022/07/31 11:28:31;;;;;;;19.65;11.60;;;;;;;18.31;100.00;101372.19;4900024;29;20040;-80